Portland, Oregon
Traffic Map
Current Weather Conditions
Portland, Oregon
Overcast Light Rain
Overcast
17°
Feels Like: 17°
Wind Chill: 17° Ceiling: 4800
Heat Index: 17° Visibility: 10mi
Dew Point: 11° Wind: 25mph
Humidity: 70% Direction: 180° (S)
Pressure: 29.4in Gusts: 45mph
Raw Report DataKPDX 252253Z 18022G39KT 10SM -RA SCT041 BKN048 OVC070 17/11 A2940 RMK AO2 PK WND 18040/2224 RAB49 SLP956 P0000 T01670111
Traffic Incident Summary
Active as of:
Severity:
Category:
InformationThere was an issue retrieving the traffic information for this location. Please try a different location or try again shortly.
Advertisements
Track Severe Weather on mobile